sensor_id;sensor_type;location;lat;lon;timestamp;pressure;altitude;pressure_sealevel;temperature;humidity
56514;BME280;62152;52.078;8.414;2024-03-07T00:00:45;101151.44;;;17.90;55.91
56514;BME280;62152;52.078;8.414;2024-03-07T00:04:46;101141.63;;;17.89;56.07
56514;BME280;62152;52.078;8.414;2024-03-07T00:08:50;101137.28;;;17.88;56.17
56514;BME280;62152;52.078;8.414;2024-03-07T00:12:51;101140.00;;;17.88;55.96
56514;BME280;62152;52.078;8.414;2024-03-07T00:16:51;101137.63;;;17.86;56.06
56514;BME280;62152;52.078;8.414;2024-03-07T00:20:52;101134.75;;;17.83;56.08
56514;BME280;62152;52.078;8.414;2024-03-07T00:24:56;101137.97;;;17.85;56.13
56514;BME280;62152;52.078;8.414;2024-03-07T00:28:57;101136.03;;;17.85;56.08
56514;BME280;62152;52.078;8.414;2024-03-07T00:32:58;101131.66;;;17.84;56.18
56514;BME280;62152;52.078;8.414;2024-03-07T00:36:59;101131.53;;;17.81;56.46
56514;BME280;62152;52.078;8.414;2024-03-07T00:41:02;101134.28;;;17.81;56.25
56514;BME280;62152;52.078;8.414;2024-03-07T00:45:04;101138.19;;;17.80;56.44
56514;BME280;62152;52.078;8.414;2024-03-07T00:49:05;101142.88;;;17.79;56.39
56514;BME280;62152;52.078;8.414;2024-03-07T00:53:05;101138.19;;;17.80;56.27
56514;BME280;62152;52.078;8.414;2024-03-07T00:57:09;101137.03;;;17.81;56.45
56514;BME280;62152;52.078;8.414;2024-03-07T01:01:09;101131.53;;;17.81;56.22
56514;BME280;62152;52.078;8.414;2024-03-07T01:05:10;101127.56;;;17.78;56.35
56514;BME280;62152;52.078;8.414;2024-03-07T01:09:11;101131.41;;;17.77;56.44
56514;BME280;62152;52.078;8.414;2024-03-07T01:13:14;101132.91;;;17.74;56.47
56514;BME280;62152;52.078;8.414;2024-03-07T01:17:15;101132.25;;;17.77;56.66
56514;BME280;62152;52.078;8.414;2024-03-07T01:21:16;101127.41;;;17.74;56.56
56514;BME280;62152;52.078;8.414;2024-03-07T01:25:17;101121.94;;;17.74;56.51
56514;BME280;62152;52.078;8.414;2024-03-07T01:29:20;101126.97;;;17.72;56.72
56514;BME280;62152;52.078;8.414;2024-03-07T01:33:21;101111.75;;;17.75;56.50
56514;BME280;62152;52.078;8.414;2024-03-07T01:37:22;101114.16;;;17.76;56.50
56514;BME280;62152;52.078;8.414;2024-03-07T01:41:23;101112.09;;;17.73;56.53
56514;BME280;62152;52.078;8.414;2024-03-07T01:45:26;101117.59;;;17.73;56.83
56514;BME280;62152;52.078;8.414;2024-03-07T01:49:27;101106.97;;;17.72;56.87
56514;BME280;62152;52.078;8.414;2024-03-07T01:53:29;101099.03;;;17.70;56.74
56514;BME280;62152;52.078;8.414;2024-03-07T01:57:31;101106.81;;;17.68;56.87
56514;BME280;62152;52.078;8.414;2024-03-07T02:01:35;101106.81;;;17.68;57.01
56514;BME280;62152;52.078;8.414;2024-03-07T02:05:35;101104.06;;;17.68;56.96
56514;BME280;62152;52.078;8.414;2024-03-07T02:09:36;101084.84;;;17.68;57.03
56514;BME280;62152;52.078;8.414;2024-03-07T02:13:37;101096.28;;;17.70;56.89
56514;BME280;62152;52.078;8.414;2024-03-07T02:17:41;101089.88;;;17.66;56.89
56514;BME280;62152;52.078;8.414;2024-03-07T02:21:44;101087.59;;;17.68;57.00
56514;BME280;62152;52.078;8.414;2024-03-07T02:25:45;101082.47;;;17.67;56.82
56514;BME280;62152;52.078;8.414;2024-03-07T02:29:46;101087.94;;;17.67;56.99
56514;BME280;62152;52.078;8.414;2024-03-07T02:33:46;101078.13;;;17.66;57.05
56514;BME280;62152;52.078;8.414;2024-03-07T02:37:51;101081.22;;;17.64;56.94
56514;BME280;62152;52.078;8.414;2024-03-07T02:41:51;101078.47;;;17.64;56.91
56514;BME280;62152;52.078;8.414;2024-03-07T02:45:52;101075.25;;;17.62;56.98
56514;BME280;62152;52.078;8.414;2024-03-07T02:49:53;101071.69;;;17.62;57.20
56514;BME280;62152;52.078;8.414;2024-03-07T02:53:57;101075.94;;;17.59;57.12
56514;BME280;62152;52.078;8.414;2024-03-07T02:57:57;101072.84;;;17.61;57.18
56514;BME280;62152;52.078;8.414;2024-03-07T03:01:59;101070.91;;;17.61;56.97
56514;BME280;62152;52.078;8.414;2024-03-07T03:05:59;101080.28;;;17.60;57.24
56514;BME280;62152;52.078;8.414;2024-03-07T03:10:04;101077.53;;;17.60;57.21
56514;BME280;62152;52.078;8.414;2024-03-07T03:14:05;101074.34;;;17.58;57.08
56514;BME280;62152;52.078;8.414;2024-03-07T03:18:06;101070.81;;;17.58;57.31
56514;BME280;62152;52.078;8.414;2024-03-07T03:22:06;101067.72;;;17.59;57.32
56514;BME280;62152;52.078;8.414;2024-03-07T03:26:10;101067.25;;;17.57;57.16
56514;BME280;62152;52.078;8.414;2024-03-07T03:30:11;101070.66;;;17.54;57.40
56514;BME280;62152;52.078;8.414;2024-03-07T03:34:12;101069.53;;;17.55;57.16
56514;BME280;62152;52.078;8.414;2024-03-07T03:38:13;101070.00;;;17.57;57.35
56514;BME280;62152;52.078;8.414;2024-03-07T03:42:16;101071.81;;;17.53;57.25
56514;BME280;62152;52.078;8.414;2024-03-07T03:46:17;101065.97;;;17.55;57.21
56514;BME280;62152;52.078;8.414;2024-03-07T03:50:18;101073.41;;;17.54;57.45
56514;BME280;62152;52.078;8.414;2024-03-07T03:54:18;101064.72;;;17.52;57.49
56514;BME280;62152;52.078;8.414;2024-03-07T03:58:22;101063.13;;;17.51;57.44
56514;BME280;62152;52.078;8.414;2024-03-07T04:02:23;101059.69;;;17.54;57.37
56514;BME280;62152;52.078;8.414;2024-03-07T04:06:23;101059.25;;;17.52;57.52
56514;BME280;62152;52.078;8.414;2024-03-07T04:10:24;101060.84;;;17.53;57.49
56514;BME280;62152;52.078;8.414;2024-03-07T04:14:28;101059.25;;;17.52;57.49
56514;BME280;62152;52.078;8.414;2024-03-07T04:18:28;101060.69;;;17.49;57.61
56514;BME280;62152;52.078;8.414;2024-03-07T04:22:29;101050.88;;;17.48;57.71
56514;BME280;62152;52.078;8.414;2024-03-07T04:26:30;101057.66;;;17.51;57.68
56514;BME280;62152;52.078;8.414;2024-03-07T04:30:33;101062.34;;;17.50;57.60
56514;BME280;62152;52.078;8.414;2024-03-07T04:34:34;101052.38;;;17.46;57.58
56514;BME280;62152;52.078;8.414;2024-03-07T04:38:35;101043.00;;;17.47;57.68
56514;BME280;62152;52.078;8.414;2024-03-07T04:42:35;101041.84;;;17.48;57.53
56514;BME280;62152;52.078;8.414;2024-03-07T04:46:39;101037.88;;;17.45;57.68
56514;BME280;62152;52.078;8.414;2024-03-07T04:50:40;101041.75;;;17.44;57.86
56514;BME280;62152;52.078;8.414;2024-03-07T04:54:40;101060.16;;;17.44;57.85
56514;BME280;62152;52.078;8.414;2024-03-07T04:58:41;101052.47;;;17.37;57.75
56514;BME280;62152;52.078;8.414;2024-03-07T05:02:46;101054.44;;;15.99;55.74
56514;BME280;62152;52.078;8.414;2024-03-07T05:06:47;101055.81;;;15.38;54.38
56514;BME280;62152;52.078;8.414;2024-03-07T05:10:48;101062.41;;;15.28;42.78
56514;BME280;62152;52.078;8.414;2024-03-07T05:14:48;101070.47;;;16.09;47.60
56514;BME280;62152;52.078;8.414;2024-03-07T05:18:52;101074.84;;;16.94;48.37
56514;BME280;62152;52.078;8.414;2024-03-07T05:22:52;101075.38;;;17.20;49.15
56514;BME280;62152;52.078;8.414;2024-03-07T05:26:53;101071.50;;;17.21;49.29
56514;BME280;62152;52.078;8.414;2024-03-07T05:30:54;101067.16;;;17.20;50.03
56514;BME280;62152;52.078;8.414;2024-03-07T05:34:57;101066.81;;;17.22;50.41
56514;BME280;62152;52.078;8.414;2024-03-07T05:38:58;101063.28;;;17.21;50.71
56514;BME280;62152;52.078;8.414;2024-03-07T05:42:59;101069.81;;;17.17;51.23
56514;BME280;62152;52.078;8.414;2024-03-07T05:47:00;101073.13;;;17.22;51.19
56514;BME280;62152;52.078;8.414;2024-03-07T05:51:04;101067.66;;;17.22;51.76
56514;BME280;62152;52.078;8.414;2024-03-07T05:55:05;101074.59;;;17.20;52.16
56514;BME280;62152;52.078;8.414;2024-03-07T05:59:06;101068.75;;;17.21;52.33
56514;BME280;62152;52.078;8.414;2024-03-07T06:03:07;101079.63;;;17.18;52.43
56514;BME280;62152;52.078;8.414;2024-03-07T06:07:10;101082.03;;;17.19;52.64
56514;BME280;62152;52.078;8.414;2024-03-07T06:11:11;101077.78;;;17.22;52.81
56514;BME280;62152;52.078;8.414;2024-03-07T06:15:12;101079.16;;;17.16;53.02
56514;BME280;62152;52.078;8.414;2024-03-07T06:19:12;101080.41;;;17.18;53.16
56514;BME280;62152;52.078;8.414;2024-03-07T06:23:16;101075.16;;;17.13;53.33
56514;BME280;62152;52.078;8.414;2024-03-07T06:27:16;101084.31;;;17.17;53.35
56514;BME280;62152;52.078;8.414;2024-03-07T06:31:17;101073.34;;;17.17;53.46
56514;BME280;62152;52.078;8.414;2024-03-07T06:35:18;101073.69;;;17.16;53.55
56514;BME280;62152;52.078;8.414;2024-03-07T06:39:21;101091.38;;;17.18;53.86
56514;BME280;62152;52.078;8.414;2024-03-07T06:43:22;101086.25;;;17.17;53.97
56514;BME280;62152;52.078;8.414;2024-03-07T06:47:23;101094.13;;;17.18;53.78
56514;BME280;62152;52.078;8.414;2024-03-07T06:51:24;101095.28;;;17.17;53.93
56514;BME280;62152;52.078;8.414;2024-03-07T06:55:27;101096.88;;;17.18;54.00
56514;BME280;62152;52.078;8.414;2024-03-07T06:59:28;101105.91;;;17.19;54.27
56514;BME280;62152;52.078;8.414;2024-03-07T07:03:29;101098.00;;;17.17;54.19
56514;BME280;62152;52.078;8.414;2024-03-07T07:07:29;101100.75;;;17.17;54.24
56514;BME280;62152;52.078;8.414;2024-03-07T07:11:33;101094.13;;;17.18;54.43
56514;BME280;62152;52.078;8.414;2024-03-07T07:15:34;101083.16;;;17.18;54.50
56514;BME280;62152;52.078;8.414;2024-03-07T07:19:35;101094.94;;;17.19;54.55
56514;BME280;62152;52.078;8.414;2024-03-07T07:23:36;101086.25;;;17.17;54.44
56514;BME280;62152;52.078;8.414;2024-03-07T07:27:40;101092.19;;;17.19;54.62
56514;BME280;62152;52.078;8.414;2024-03-07T07:31:41;101081.22;;;17.19;54.41
56514;BME280;62152;52.078;8.414;2024-03-07T07:35:42;101072.19;;;17.18;54.49
56514;BME280;62152;52.078;8.414;2024-03-07T07:39:43;101067.84;;;17.17;54.75
56514;BME280;62152;52.078;8.414;2024-03-07T07:43:46;101082.03;;;17.19;54.53
56514;BME280;62152;52.078;8.414;2024-03-07T07:47:49;101091.84;;;17.20;54.73
56514;BME280;62152;52.078;8.414;2024-03-07T07:51:50;101081.34;;;17.22;54.51
56514;BME280;62152;52.078;8.414;2024-03-07T07:55:51;101094.59;;;17.20;54.76
56514;BME280;62152;52.078;8.414;2024-03-07T07:59:54;101092.53;;;17.17;54.92
56514;BME280;62152;52.078;8.414;2024-03-07T08:03:55;101083.97;;;17.19;54.70
56514;BME280;62152;52.078;8.414;2024-03-07T08:07:57;101081.66;;;17.21;54.83
56514;BME280;62152;52.078;8.414;2024-03-07T08:11:58;101081.00;;;17.24;54.74
56514;BME280;62152;52.078;8.414;2024-03-07T08:16:01;101078.13;;;17.20;54.72
56514;BME280;62152;52.078;8.414;2024-03-07T08:20:02;101070.59;;;17.17;54.99
56514;BME280;62152;52.078;8.414;2024-03-07T08:24:04;101066.16;;;17.25;54.86
56514;BME280;62152;52.078;8.414;2024-03-07T08:28:04;101063.41;;;17.25;54.89
56514;BME280;62152;52.078;8.414;2024-03-07T08:32:08;101053.25;;;17.26;54.87
56514;BME280;62152;52.078;8.414;2024-03-07T08:36:09;101054.84;;;17.27;54.91
56514;BME280;62152;52.078;8.414;2024-03-07T08:40:11;101056.00;;;17.26;54.85
56514;BME280;62152;52.078;8.414;2024-03-07T08:44:12;101056.78;;;17.26;54.78
56514;BME280;62152;52.078;8.414;2024-03-07T08:48:15;101055.66;;;17.27;54.95
56514;BME280;62152;52.078;8.414;2024-03-07T08:52:16;101057.59;;;17.27;54.91
56514;BME280;62152;52.078;8.414;2024-03-07T08:56:16;101052.44;;;17.25;54.74
56514;BME280;62152;52.078;8.414;2024-03-07T09:00:18;101056.78;;;17.26;54.82
56514;BME280;62152;52.078;8.414;2024-03-07T09:04:22;101052.09;;;17.27;54.79
56514;BME280;62152;52.078;8.414;2024-03-07T09:08:23;101055.78;;;17.31;54.88
56514;BME280;62152;52.078;8.414;2024-03-07T09:12:24;101056.94;;;17.30;54.76
56514;BME280;62152;52.078;8.414;2024-03-07T09:16:25;101049.81;;;17.29;54.96
56514;BME280;62152;52.078;8.414;2024-03-07T09:20:28;101042.72;;;17.28;55.05
56514;BME280;62152;52.078;8.414;2024-03-07T09:24:30;101049.50;;;17.30;54.75
56514;BME280;62152;52.078;8.414;2024-03-07T09:28:31;101045.63;;;17.31;54.99
56514;BME280;62152;52.078;8.414;2024-03-07T09:32:32;101049.50;;;17.30;54.77
56514;BME280;62152;52.078;8.414;2024-03-07T09:36:35;101043.66;;;17.32;54.82
56514;BME280;62152;52.078;8.414;2024-03-07T09:40:36;101046.41;;;17.32;54.76
56514;BME280;62152;52.078;8.414;2024-03-07T09:44:40;101033.59;;;17.36;54.66
56514;BME280;62152;52.078;8.414;2024-03-07T09:48:41;101048.47;;;17.35;54.89
56514;BME280;62152;52.078;8.414;2024-03-07T09:52:45;101055.53;;;17.36;54.87
56514;BME280;62152;52.078;8.414;2024-03-07T09:56:47;101047.56;;;17.31;54.79
56514;BME280;62152;52.078;8.414;2024-03-07T10:00:49;101053.03;;;17.31;54.95
56514;BME280;62152;52.078;8.414;2024-03-07T10:04:53;101055.44;;;17.32;54.88
56514;BME280;62152;52.078;8.414;2024-03-07T10:08:58;101058.84;;;17.29;54.86
56514;BME280;62152;52.078;8.414;2024-03-07T10:12:59;101054.63;;;17.32;55.01
56514;BME280;62152;52.078;8.414;2024-03-07T10:16:59;101062.53;;;17.33;54.85
56514;BME280;62152;52.078;8.414;2024-03-07T10:21:00;101062.06;;;17.31;54.87
56514;BME280;62152;52.078;8.414;2024-03-07T10:25:04;101055.78;;;17.31;54.99
56514;BME280;62152;52.078;8.414;2024-03-07T10:29:05;101057.72;;;17.30;55.20
56514;BME280;62152;52.078;8.414;2024-03-07T10:33:06;101059.66;;;17.30;54.93
56514;BME280;62152;52.078;8.414;2024-03-07T10:37:07;101058.53;;;17.31;54.91
56514;BME280;62152;52.078;8.414;2024-03-07T10:41:12;101059.66;;;17.30;55.16
56514;BME280;62152;52.078;8.414;2024-03-07T10:45:17;101055.78;;;17.31;54.89
56514;BME280;62152;52.078;8.414;2024-03-07T10:49:19;101061.72;;;17.33;55.09
56514;BME280;62152;52.078;8.414;2024-03-07T10:53:26;101053.94;;;17.35;54.94
56514;BME280;62152;52.078;8.414;2024-03-07T10:57:44;101047.44;;;17.39;54.70
56514;BME280;62152;52.078;8.414;2024-03-07T11:01:55;101037.28;;;17.40;54.75
56514;BME280;62152;52.078;8.414;2024-03-07T11:05:58;101035.34;;;17.40;54.74
56514;BME280;62152;52.078;8.414;2024-03-07T11:10:01;101030.53;;;17.37;54.69
56514;BME280;62152;52.078;8.414;2024-03-07T11:14:05;101043.22;;;17.42;54.81
56514;BME280;62152;52.078;8.414;2024-03-07T11:18:06;101035.47;;;17.44;54.84
56514;BME280;62152;52.078;8.414;2024-03-07T11:22:07;101029.28;;;17.47;54.62
56514;BME280;62152;52.078;8.414;2024-03-07T11:26:09;101032.72;;;17.44;54.83
56514;BME280;62152;52.078;8.414;2024-03-07T11:30:17;101035.47;;;17.44;54.63
56514;BME280;62152;52.078;8.414;2024-03-07T11:34:18;101026.09;;;17.45;54.62
56514;BME280;62152;52.078;8.414;2024-03-07T11:38:19;101021.84;;;17.47;54.80
56514;BME280;62152;52.078;8.414;2024-03-07T11:42:22;101021.75;;;17.44;54.79
56514;BME280;62152;52.078;8.414;2024-03-07T11:46:32;101016.28;;;17.44;54.83
56514;BME280;62152;52.078;8.414;2024-03-07T11:50:33;101003.34;;;17.44;54.81
56514;BME280;62152;52.078;8.414;2024-03-07T11:54:34;101001.84;;;17.47;54.69
56514;BME280;62152;52.078;8.414;2024-03-07T11:58:38;100999.13;;;17.47;54.78
56514;BME280;62152;52.078;8.414;2024-03-07T12:02:41;100997.88;;;17.44;54.63
56514;BME280;62152;52.078;8.414;2024-03-07T12:06:50;100988.38;;;17.42;54.75
56514;BME280;62152;52.078;8.414;2024-03-07T12:10:52;100976.94;;;17.40;54.69
56514;BME280;62152;52.078;8.414;2024-03-07T12:14:54;100976.59;;;17.41;54.72
56514;BME280;62152;52.078;8.414;2024-03-07T12:18:57;100964.84;;;17.41;54.66
56514;BME280;62152;52.078;8.414;2024-03-07T12:22:59;100968.38;;;17.41;54.96
56514;BME280;62152;52.078;8.414;2024-03-07T12:27:07;100959.78;;;17.43;54.84
56514;BME280;62152;52.078;8.414;2024-03-07T12:31:08;100954.78;;;17.45;54.62
56514;BME280;62152;52.078;8.414;2024-03-07T12:35:12;100947.38;;;17.45;54.81
56514;BME280;62152;52.078;8.414;2024-03-07T12:39:21;100934.53;;;17.49;54.74
56514;BME280;62152;52.078;8.414;2024-03-07T12:43:22;100929.06;;;17.49;54.74
56514;BME280;62152;52.078;8.414;2024-03-07T12:47:23;100925.88;;;17.47;54.56
56514;BME280;62152;52.078;8.414;2024-03-07T12:51:26;100903.94;;;17.47;54.54
56514;BME280;62152;52.078;8.414;2024-03-07T12:55:27;100906.31;;;17.49;54.70
56514;BME280;62152;52.078;8.414;2024-03-07T12:59:28;100916.16;;;17.50;54.72
56514;BME280;62152;52.078;8.414;2024-03-07T13:03:29;100911.56;;;17.54;54.48
56514;BME280;62152;52.078;8.414;2024-03-07T13:07:32;100903.34;;;17.54;54.44
56514;BME280;62152;52.078;8.414;2024-03-07T13:11:33;100892.16;;;17.59;54.32
56514;BME280;62152;52.078;8.414;2024-03-07T13:15:33;100886.09;;;17.54;54.53
56514;BME280;62152;52.078;8.414;2024-03-07T13:19:34;100881.31;;;17.50;54.66
56514;BME280;62152;52.078;8.414;2024-03-07T13:23:38;100880.16;;;17.52;54.62
56514;BME280;62152;52.078;8.414;2024-03-07T13:27:39;100882.00;;;17.47;54.79
56514;BME280;62152;52.078;8.414;2024-03-07T13:31:40;100876.63;;;17.51;54.73
56514;BME280;62152;52.078;8.414;2024-03-07T13:35:43;100881.75;;;17.53;54.51
56514;BME280;62152;52.078;8.414;2024-03-07T13:39:47;100879.00;;;17.53;54.72
56514;BME280;62152;52.078;8.414;2024-03-07T13:43:48;100873.53;;;17.53;54.73
56514;BME280;62152;52.078;8.414;2024-03-07T13:47:50;100874.78;;;17.55;54.40
56514;BME280;62152;52.078;8.414;2024-03-07T13:51:50;100872.16;;;17.59;54.34
56514;BME280;62152;52.078;8.414;2024-03-07T13:56:14;100861.19;;;17.59;54.28
56514;BME280;62152;52.078;8.414;2024-03-07T14:00:38;100854.19;;;17.61;54.26
56514;BME280;62152;52.078;8.414;2024-03-07T14:05:23;100845.53;;;17.59;54.39
56514;BME280;62152;52.078;8.414;2024-03-07T14:09:47;100850.31;;;17.62;54.26
56514;BME280;62152;52.078;8.414;2024-03-07T14:14:14;100840.47;;;17.61;54.44
56514;BME280;62152;52.078;8.414;2024-03-07T14:19:03;100839.69;;;17.61;54.41
56514;BME280;62152;52.078;8.414;2024-03-07T14:23:24;100837.28;;;17.59;54.61
56514;BME280;62152;52.078;8.414;2024-03-07T14:27:32;100831.81;;;17.59;54.59
56514;BME280;62152;52.078;8.414;2024-03-07T14:31:39;100833.63;;;17.55;54.36
56514;BME280;62152;52.078;8.414;2024-03-07T14:35:59;100824.25;;;17.56;54.58
56514;BME280;62152;52.078;8.414;2024-03-07T14:40:09;100808.72;;;17.60;54.35
56514;BME280;62152;52.078;8.414;2024-03-07T14:44:10;100804.81;;;17.61;54.54
56514;BME280;62152;52.078;8.414;2024-03-07T14:48:17;100806.09;;;17.64;54.36
56514;BME280;62152;52.078;8.414;2024-03-07T14:52:18;100802.88;;;17.62;54.53
56514;BME280;62152;52.078;8.414;2024-03-07T14:56:19;100800.91;;;17.62;54.29
56514;BME280;62152;52.078;8.414;2024-03-07T15:00:20;100791.91;;;17.62;54.34
56514;BME280;62152;52.078;8.414;2024-03-07T15:04:24;100794.56;;;17.58;54.57
56514;BME280;62152;52.078;8.414;2024-03-07T15:08:26;100790.53;;;17.56;54.45
56514;BME280;62152;52.078;8.414;2024-03-07T15:12:27;100790.53;;;17.56;54.53
56514;BME280;62152;52.078;8.414;2024-03-07T15:16:28;100782.00;;;17.57;54.44
56514;BME280;62152;52.078;8.414;2024-03-07T15:20:31;100782.00;;;17.57;54.71
56514;BME280;62152;52.078;8.414;2024-03-07T15:24:32;100773.41;;;17.59;54.64
56514;BME280;62152;52.078;8.414;2024-03-07T15:28:33;100767.56;;;17.60;54.53
56514;BME280;62152;52.078;8.414;2024-03-07T15:32:34;100757.81;;;17.63;54.58
56514;BME280;62152;52.078;8.414;2024-03-07T15:36:37;100759.88;;;17.66;54.19
56514;BME280;62152;52.078;8.414;2024-03-07T15:40:38;100749.28;;;17.64;54.49
56514;BME280;62152;52.078;8.414;2024-03-07T15:44:39;100745.25;;;17.62;54.52
56514;BME280;62152;52.078;8.414;2024-03-07T15:48:41;100742.88;;;17.60;54.59
56514;BME280;62152;52.078;8.414;2024-03-07T15:52:48;100742.09;;;17.60;54.61
56514;BME280;62152;52.078;8.414;2024-03-07T15:56:49;100742.09;;;17.60;54.61
56514;BME280;62152;52.078;8.414;2024-03-07T16:00:49;100736.59;;;17.60;54.46
56514;BME280;62152;52.078;8.414;2024-03-07T16:04:50;100737.75;;;17.59;54.69
56514;BME280;62152;52.078;8.414;2024-03-07T16:08:53;100731.78;;;17.57;54.65
56514;BME280;62152;52.078;8.414;2024-03-07T16:12:54;100734.88;;;17.55;54.67
56514;BME280;62152;52.078;8.414;2024-03-07T16:16:55;100725.50;;;17.56;54.71
56514;BME280;62152;52.078;8.414;2024-03-07T16:20:56;100728.59;;;17.55;54.67
56514;BME280;62152;52.078;8.414;2024-03-07T16:24:59;100719.16;;;17.52;54.60
56514;BME280;62152;52.078;8.414;2024-03-07T16:29:00;100719.16;;;17.52;54.69
56514;BME280;62152;52.078;8.414;2024-03-07T16:33:01;100723.03;;;17.51;54.73
56514;BME280;62152;52.078;8.414;2024-03-07T16:37:01;100720.31;;;17.51;54.79
56514;BME280;62152;52.078;8.414;2024-03-07T16:41:05;100719.50;;;17.50;54.68
56514;BME280;62152;52.078;8.414;2024-03-07T16:45:07;100717.44;;;17.47;54.79
56514;BME280;62152;52.078;8.414;2024-03-07T16:49:08;100726.81;;;17.46;54.99
56514;BME280;62152;52.078;8.414;2024-03-07T16:53:09;100724.44;;;17.45;54.90
56514;BME280;62152;52.078;8.414;2024-03-07T16:57:13;100723.53;;;17.41;55.00
56514;BME280;62152;52.078;8.414;2024-03-07T17:01:13;100728.22;;;17.40;55.20
56514;BME280;62152;52.078;8.414;2024-03-07T17:05:14;100731.41;;;17.42;55.01
56514;BME280;62152;52.078;8.414;2024-03-07T17:09:15;100734.84;;;17.39;55.01
56514;BME280;62152;52.078;8.414;2024-03-07T17:13:19;100736.34;;;17.37;55.04
56514;BME280;62152;52.078;8.414;2024-03-07T17:17:19;100738.19;;;17.33;55.29
56514;BME280;62152;52.078;8.414;2024-03-07T17:21:20;100728.91;;;17.37;55.05
56514;BME280;62152;52.078;8.414;2024-03-07T17:25:23;100733.13;;;17.35;55.30
56514;BME280;62152;52.078;8.414;2024-03-07T17:29:26;100718.63;;;17.34;55.32
56514;BME280;62152;52.078;8.414;2024-03-07T17:33:27;100724.81;;;17.31;55.44
56514;BME280;62152;52.078;8.414;2024-03-07T17:37:28;100728.72;;;17.30;55.49
56514;BME280;62152;52.078;8.414;2024-03-07T17:41:29;100737.72;;;17.31;55.68
56514;BME280;62152;52.078;8.414;2024-03-07T17:45:32;100738.88;;;17.30;55.51
56514;BME280;62152;52.078;8.414;2024-03-07T17:49:33;100734.06;;;17.27;55.74
56514;BME280;62152;52.078;8.414;2024-03-07T17:53:34;100730.19;;;17.28;55.85
56514;BME280;62152;52.078;8.414;2024-03-07T17:57:35;100730.91;;;17.25;55.75
56514;BME280;62152;52.078;8.414;2024-03-07T18:01:38;100741.06;;;17.24;55.95
56514;BME280;62152;52.078;8.414;2024-03-07T18:05:40;100737.53;;;17.23;55.73
56514;BME280;62152;52.078;8.414;2024-03-07T18:09:41;100741.06;;;17.24;55.83
56514;BME280;62152;52.078;8.414;2024-03-07T18:13:42;100741.06;;;17.24;55.93
56514;BME280;62152;52.078;8.414;2024-03-07T18:17:45;100741.41;;;17.22;55.91
56514;BME280;62152;52.078;8.414;2024-03-07T18:21:46;100747.34;;;17.25;55.63
56514;BME280;62152;52.078;8.414;2024-03-07T18:25:47;100735.47;;;17.20;56.09
56514;BME280;62152;52.078;8.414;2024-03-07T18:29:48;100739.81;;;17.21;56.12
56514;BME280;62152;52.078;8.414;2024-03-07T18:33:51;100739.47;;;17.23;55.93
56514;BME280;62152;52.078;8.414;2024-03-07T18:37:52;100742.22;;;17.23;55.93
56514;BME280;62152;52.078;8.414;2024-03-07T18:41:52;100737.53;;;17.23;55.95
56514;BME280;62152;52.078;8.414;2024-03-07T18:45:53;100736.25;;;17.21;56.12
56514;BME280;62152;52.078;8.414;2024-03-07T18:49:57;100734.66;;;17.20;56.05
56514;BME280;62152;52.078;8.414;2024-03-07T18:53:57;100732.38;;;17.22;55.96
56514;BME280;62152;52.078;8.414;2024-03-07T18:58:00;100727.59;;;17.19;56.28
56514;BME280;62152;52.078;8.414;2024-03-07T19:02:01;100722.13;;;17.19;55.99
56514;BME280;62152;52.078;8.414;2024-03-07T19:06:05;100733.88;;;17.19;56.20
56514;BME280;62152;52.078;8.414;2024-03-07T19:10:07;100725.66;;;17.19;56.01
56514;BME280;62152;52.078;8.414;2024-03-07T19:14:08;100728.03;;;17.21;55.99
56514;BME280;62152;52.078;8.414;2024-03-07T19:18:09;100717.78;;;17.18;56.27
56514;BME280;62152;52.078;8.414;2024-03-07T19:22:12;100721.31;;;17.18;56.32
56514;BME280;62152;52.078;8.414;2024-03-07T19:26:13;100718.22;;;17.20;56.33
56514;BME280;62152;52.078;8.414;2024-03-07T19:30:15;100714.34;;;17.21;56.12
56514;BME280;62152;52.078;8.414;2024-03-07T19:34:16;100711.94;;;17.19;56.25
56514;BME280;62152;52.078;8.414;2024-03-07T19:38:20;100713.09;;;17.18;56.29
56514;BME280;62152;52.078;8.414;2024-03-07T19:42:21;100710.78;;;17.20;56.28
56514;BME280;62152;52.078;8.414;2024-03-07T19:46:22;100712.28;;;17.18;56.18
56514;BME280;62152;52.078;8.414;2024-03-07T19:50:22;100715.03;;;17.18;56.21
56514;BME280;62152;52.078;8.414;2024-03-07T19:54:26;100713.31;;;17.54;57.28
56514;BME280;62152;52.078;8.414;2024-03-07T19:58:26;100717.56;;;17.79;57.59
56514;BME280;62152;52.078;8.414;2024-03-07T20:02:27;100713.53;;;17.48;57.94
56514;BME280;62152;52.078;8.414;2024-03-07T20:06:32;100719.44;;;17.35;58.00
56514;BME280;62152;52.078;8.414;2024-03-07T20:10:35;100727.81;;;17.26;57.93
56514;BME280;62152;52.078;8.414;2024-03-07T20:14:36;100731.56;;;17.21;58.10
56514;BME280;62152;52.078;8.414;2024-03-07T20:18:39;100722.47;;;17.17;57.89
56514;BME280;62152;52.078;8.414;2024-03-07T20:22:41;100732.03;;;17.23;57.59
56514;BME280;62152;52.078;8.414;2024-03-07T20:26:44;100722.56;;;17.21;57.58
56514;BME280;62152;52.078;8.414;2024-03-07T20:30:45;100723.69;;;17.20;57.42
56514;BME280;62152;52.078;8.414;2024-03-07T20:34:46;100719.72;;;17.17;57.50
56514;BME280;62152;52.078;8.414;2024-03-07T20:38:47;100725.66;;;17.19;57.16
56514;BME280;62152;52.078;8.414;2024-03-07T20:42:51;100728.31;;;17.16;57.31
56514;BME280;62152;52.078;8.414;2024-03-07T20:46:51;100722.81;;;17.16;57.25
56514;BME280;62152;52.078;8.414;2024-03-07T20:50:52;100713.44;;;17.17;57.02
56514;BME280;62152;52.078;8.414;2024-03-07T20:54:53;100720.06;;;17.16;57.17
56514;BME280;62152;52.078;8.414;2024-03-07T20:58:56;100704.44;;;17.16;57.05
56514;BME280;62152;52.078;8.414;2024-03-07T21:02:57;100708.75;;;17.17;57.07
56514;BME280;62152;52.078;8.414;2024-03-07T21:06:58;100709.00;;;17.12;56.94